createdAt,value
2023-04-29T00:00:06.990Z,97893.41
2023-04-29T00:02:33.920Z,97903.66
2023-04-29T00:05:01.162Z,97908.94
2023-04-29T00:07:28.070Z,97898.53
2023-04-29T00:09:54.691Z,97905.50
2023-04-29T00:12:21.184Z,97902.31
2023-04-29T00:14:47.830Z,97895.56
2023-04-29T00:17:14.447Z,97894.19
2023-04-29T00:19:41.507Z,97893.66
2023-04-29T00:22:08.015Z,97892.03
2023-04-29T00:24:34.891Z,97895.44
2023-04-29T00:27:02.630Z,97891.09
2023-04-29T00:29:29.306Z,97892.16
2023-04-29T00:31:55.981Z,97884.50
2023-04-29T00:34:22.729Z,97893.31
2023-04-29T00:36:49.536Z,97892.41
2023-04-29T00:39:16.191Z,97896.66
2023-04-29T00:41:42.871Z,97895.81
2023-04-29T00:44:10.149Z,97897.53
2023-04-29T00:46:36.964Z,97902.69
2023-04-29T00:49:04.228Z,97905.88
2023-04-29T00:51:30.952Z,97897.53
2023-04-29T00:53:57.668Z,97903.41
2023-04-29T00:56:24.780Z,97905.97
2023-04-29T00:58:52.660Z,97905.69
2023-04-29T01:01:20.290Z,97914.31
2023-04-29T01:03:47.156Z,97908.91
2023-04-29T01:06:17.744Z,97915.19
2023-04-29T01:08:49.613Z,97919.53
2023-04-29T01:11:21.672Z,97921.25
2023-04-29T01:13:54.637Z,97917.66
2023-04-29T01:16:33.956Z,97922.72
2023-04-29T01:19:07.472Z,97921.78
2023-04-29T01:21:47.126Z,97918.13
2023-04-29T01:24:14.249Z,97922.56
2023-04-29T01:26:46.272Z,97923.66
2023-04-29T01:29:19.792Z,97925.72
2023-04-29T01:32:04.437Z,97917.94
2023-04-29T01:34:54.045Z,97920.31
2023-04-29T01:37:39.100Z,97911.38
2023-04-29T01:40:12.442Z,97921.16
2023-04-29T01:42:46.029Z,97918.50
2023-04-29T01:45:17.210Z,97921.50
2023-04-29T01:47:46.752Z,97925.59
2023-04-29T01:50:13.318Z,97919.47
2023-04-29T01:52:40.066Z,97922.09
2023-04-29T01:55:07.064Z,97924.25
2023-04-29T01:57:34.453Z,97920.69
2023-04-29T02:00:02.225Z,97924.25
2023-04-29T02:02:28.835Z,97920.13
2023-04-29T02:04:56.039Z,97921.75
2023-04-29T02:07:22.800Z,97921.53
2023-04-29T02:09:49.576Z,97918.25
2023-04-29T02:12:17.086Z,97917.97
2023-04-29T02:14:43.894Z,97917.84
2023-04-29T02:17:10.449Z,97919.50
2023-04-29T02:19:37.063Z,97919.81
2023-04-29T02:22:03.677Z,97926.44
2023-04-29T02:24:30.382Z,97927.09
2023-04-29T02:26:57.234Z,97914.19
2023-04-29T02:29:23.815Z,97914.78
2023-04-29T02:31:50.929Z,97923.03
2023-04-29T02:34:17.413Z,97916.63
2023-04-29T02:36:44.024Z,97920.94
2023-04-29T02:39:10.700Z,97922.91
2023-04-29T02:41:37.629Z,97916.00
2023-04-29T02:44:04.138Z,97923.75
2023-04-29T02:46:33.017Z,97929.25
2023-04-29T02:48:59.817Z,97923.91
2023-04-29T02:51:26.687Z,97928.28
2023-04-29T02:53:53.210Z,97925.75
2023-04-29T02:56:20.190Z,97924.59
2023-04-29T02:58:46.907Z,97926.31
2023-04-29T03:01:13.450Z,97923.88
2023-04-29T03:03:40.381Z,97930.22
2023-04-29T03:06:07.031Z,97930.34
2023-04-29T03:08:34.157Z,97939.69
2023-04-29T03:11:00.704Z,97937.28
2023-04-29T03:13:27.457Z,97930.75
2023-04-29T03:15:54.050Z,97938.88
2023-04-29T03:18:20.621Z,97939.50
2023-04-29T03:20:47.386Z,97936.19
2023-04-29T03:23:13.979Z,97934.78
2023-04-29T03:25:40.785Z,97938.09
2023-04-29T03:28:07.926Z,97935.59
2023-04-29T03:30:34.587Z,97934.91
2023-04-29T03:33:01.286Z,97936.72
2023-04-29T03:35:27.867Z,97935.03
2023-04-29T03:37:54.549Z,97939.25
2023-04-29T03:40:21.647Z,97939.44
2023-04-29T03:42:48.280Z,97941.41
2023-04-29T03:45:15.036Z,97937.41
2023-04-29T03:47:41.720Z,97944.22
2023-04-29T03:50:09.112Z,97944.34
2023-04-29T03:52:39.279Z,97938.91
2023-04-29T03:55:06.077Z,97940.78
2023-04-29T03:57:32.642Z,97944.78
2023-04-29T03:59:59.176Z,97939.88
2023-04-29T04:02:26.044Z,97958.19
2023-04-29T04:04:55.295Z,97956.53
2023-04-29T04:07:22.188Z,97955.63
2023-04-29T04:09:48.730Z,97962.72
2023-04-29T04:12:15.626Z,97966.88
2023-04-29T04:14:42.406Z,97966.94
2023-04-29T04:17:08.951Z,97965.47
2023-04-29T04:19:35.530Z,97975.19
2023-04-29T04:22:04.189Z,97986.63
2023-04-29T04:24:30.882Z,97988.25
2023-04-29T04:26:57.513Z,97989.25
2023-04-29T04:29:24.178Z,97981.16
2023-04-29T04:31:50.828Z,97991.09
2023-04-29T04:34:17.460Z,97994.72
2023-04-29T04:36:44.030Z,97994.31
2023-04-29T04:39:10.630Z,97993.53
2023-04-29T04:41:37.189Z,98006.50
2023-04-29T04:44:04.287Z,97999.53
2023-04-29T04:46:30.970Z,98005.59
2023-04-29T04:48:57.613Z,97994.84
2023-04-29T04:51:24.314Z,98001.84
2023-04-29T04:53:51.781Z,98001.75
2023-04-29T04:56:18.397Z,97997.09
2023-04-29T04:58:45.145Z,98004.13
2023-04-29T05:01:11.945Z,98002.22
2023-04-29T05:03:38.791Z,98017.22
2023-04-29T05:06:05.791Z,98019.78
2023-04-29T05:08:32.440Z,98007.31
2023-04-29T05:10:59.149Z,98014.34
2023-04-29T05:13:26.014Z,98013.13
2023-04-29T05:15:52.779Z,98017.00
2023-04-29T05:18:19.266Z,98018.50
2023-04-29T05:20:46.013Z,98017.56
2023-04-29T05:23:12.696Z,98026.88
2023-04-29T05:25:39.328Z,98028.69
2023-04-29T05:28:07.462Z,98034.09
2023-04-29T05:30:34.158Z,98031.28
2023-04-29T05:33:00.783Z,98029.53
2023-04-29T05:35:27.772Z,98042.91
2023-04-29T05:37:54.428Z,98044.63
2023-04-29T05:40:23.405Z,98044.94
2023-04-29T05:42:50.146Z,98037.41
2023-04-29T05:45:16.835Z,98039.66
2023-04-29T05:47:43.556Z,98044.56
2023-04-29T05:50:11.576Z,98042.22
2023-04-29T05:52:39.043Z,98047.28
2023-04-29T05:55:05.985Z,98050.34
2023-04-29T05:57:32.904Z,98049.00
2023-04-29T06:00:00.242Z,98055.88
2023-04-29T06:02:31.255Z,98063.78
2023-04-29T06:04:58.179Z,98060.31
2023-04-29T06:07:25.256Z,98058.25
2023-04-29T06:09:52.047Z,98067.00
2023-04-29T06:12:18.902Z,98061.16
2023-04-29T06:14:45.503Z,98069.94
2023-04-29T06:17:12.532Z,98070.75
2023-04-29T06:19:39.209Z,98080.59
2023-04-29T06:22:05.913Z,98090.50
2023-04-29T06:24:32.456Z,98094.00
2023-04-29T06:26:58.998Z,98091.59
2023-04-29T06:29:25.631Z,98100.44
2023-04-29T06:31:52.582Z,98100.28
2023-04-29T06:34:20.139Z,98106.84
2023-04-29T06:36:46.818Z,98110.16
2023-04-29T06:39:13.748Z,98115.41
2023-04-29T06:41:41.014Z,98111.28
2023-04-29T06:44:08.011Z,98118.84
2023-04-29T06:46:34.697Z,98124.97
2023-04-29T06:49:01.493Z,98122.59
2023-04-29T06:51:29.152Z,98131.28
2023-04-29T06:53:55.797Z,98133.03
2023-04-29T06:56:22.755Z,98136.38
2023-04-29T06:58:49.502Z,98146.84
2023-04-29T07:01:16.189Z,98145.06
2023-04-29T07:03:45.477Z,98148.72
2023-04-29T07:06:12.749Z,98141.63
2023-04-29T07:08:39.548Z,98143.38
2023-04-29T07:11:06.451Z,98153.03
2023-04-29T07:13:33.098Z,98151.59
2023-04-29T07:15:59.789Z,98162.22
2023-04-29T07:18:26.403Z,98160.16
2023-04-29T07:20:53.178Z,98157.59
2023-04-29T07:23:19.719Z,98162.22
2023-04-29T07:25:46.343Z,98170.91
2023-04-29T07:28:13.025Z,98171.94
2023-04-29T07:30:39.712Z,98172.94
2023-04-29T07:33:06.402Z,98177.34
2023-04-29T07:35:33.408Z,98182.88
2023-04-29T07:38:00.007Z,98183.94
2023-04-29T07:40:26.794Z,98188.34
2023-04-29T07:42:53.509Z,98190.97
2023-04-29T07:45:20.325Z,98195.97
2023-04-29T07:47:46.925Z,98194.84
2023-04-29T07:50:13.637Z,98203.53
2023-04-29T07:52:40.330Z,98197.47
2023-04-29T07:55:07.267Z,98208.22
2023-04-29T07:57:33.944Z,98215.69
2023-04-29T08:00:00.558Z,98215.84
2023-04-29T08:02:27.361Z,98225.41
2023-04-29T08:04:56.573Z,98232.41
2023-04-29T08:07:23.697Z,98232.47
2023-04-29T08:09:50.478Z,98239.38
2023-04-29T08:12:17.387Z,98231.97
2023-04-29T08:14:51.312Z,98233.84
2023-04-29T08:17:17.993Z,98242.13
2023-04-29T08:19:44.745Z,98242.75
2023-04-29T08:22:12.387Z,98244.75
2023-04-29T08:24:39.054Z,98249.22
2023-04-29T08:27:05.841Z,98252.56
2023-04-29T08:29:35.383Z,98256.31
2023-04-29T08:32:02.277Z,98253.78
2023-04-29T08:34:29.025Z,98259.88
2023-04-29T08:36:57.633Z,98260.72
2023-04-29T08:39:24.263Z,98261.78
2023-04-29T08:41:51.424Z,98272.13
2023-04-29T08:44:18.674Z,98263.69
2023-04-29T08:46:46.957Z,98267.31
2023-04-29T08:49:14.630Z,98270.28
2023-04-29T08:51:41.494Z,98279.09
2023-04-29T08:54:08.168Z,98272.63
2023-04-29T08:56:34.944Z,98276.56
2023-04-29T08:59:02.692Z,98279.16
2023-04-29T09:01:30.130Z,98277.25
2023-04-29T09:04:12.789Z,98280.44
2023-04-29T09:06:39.523Z,98287.81
2023-04-29T09:09:06.809Z,98285.72
2023-04-29T09:11:34.744Z,98299.38
2023-04-29T09:14:02.611Z,98296.22
2023-04-29T09:16:29.403Z,98296.56
2023-04-29T09:18:57.065Z,98306.41
2023-04-29T09:21:25.539Z,98299.63
2023-04-29T09:23:55.110Z,98293.66
2023-04-29T09:26:22.821Z,98299.16
2023-04-29T09:29:18.407Z,98307.28
2023-04-29T09:31:46.261Z,98308.63
2023-04-29T09:34:14.529Z,98319.28
2023-04-29T09:36:48.528Z,98310.50
2023-04-29T09:39:20.430Z,98325.06
2023-04-29T09:41:53.167Z,98324.22
2023-04-29T09:44:41.715Z,98332.25
2023-04-29T09:47:10.002Z,98327.34
2023-04-29T09:49:42.055Z,98328.28
2023-04-29T09:52:14.153Z,98334.78
2023-04-29T09:54:42.186Z,98342.59
2023-04-29T09:57:12.688Z,98334.59
2023-04-29T09:59:40.852Z,98346.84
2023-04-29T10:02:18.604Z,98356.69
2023-04-29T10:04:47.704Z,98358.06
2023-04-29T10:07:17.148Z,98357.06
2023-04-29T10:09:48.124Z,98359.13
2023-04-29T10:12:18.542Z,98360.31
2023-04-29T10:14:55.764Z,98355.50
2023-04-29T10:17:37.200Z,98365.97
2023-04-29T10:20:06.055Z,98361.09
2023-04-29T10:22:55.023Z,98367.81
2023-04-29T10:25:23.227Z,98375.47
2023-04-29T10:27:52.060Z,98373.09
2023-04-29T10:30:19.325Z,98371.19
2023-04-29T10:32:52.137Z,98372.50
2023-04-29T10:35:23.035Z,98379.47
2023-04-29T10:37:50.307Z,98387.47
2023-04-29T10:40:37.039Z,98382.28
2023-04-29T10:43:04.670Z,98385.50
2023-04-29T10:45:35.252Z,98376.91
2023-04-29T10:48:01.818Z,98380.78
2023-04-29T10:50:48.789Z,98385.84
2023-04-29T10:53:20.132Z,98384.75
2023-04-29T10:56:04.186Z,98379.91
2023-04-29T10:58:40.758Z,98383.97
2023-04-29T11:01:08.385Z,98391.25
2023-04-29T11:04:00.475Z,98386.63
2023-04-29T11:06:36.299Z,98389.59
2023-04-29T11:09:04.950Z,98384.75
2023-04-29T11:12:13.876Z,98392.41
2023-04-29T11:14:40.454Z,98394.13
2023-04-29T11:17:13.857Z,98401.50
2023-04-29T11:20:01.147Z,98405.03
2023-04-29T11:22:30.909Z,98409.41
2023-04-29T11:25:03.322Z,98408.22
2023-04-29T11:27:34.801Z,98411.34
2023-04-29T11:30:05.373Z,98420.19
2023-04-29T11:32:34.694Z,98417.63
2023-04-29T11:35:08.611Z,98419.84
2023-04-29T11:37:35.467Z,98426.22
2023-04-29T11:40:02.377Z,98421.47
2023-04-29T11:42:29.149Z,98430.19
2023-04-29T11:45:00.561Z,98441.78
2023-04-29T11:47:31.082Z,98435.53
2023-04-29T11:50:10.271Z,98435.13
2023-04-29T11:52:41.828Z,98435.13
2023-04-29T11:55:12.285Z,98441.56
2023-04-29T11:57:40.671Z,98439.47
2023-04-29T12:00:14.934Z,98437.03
2023-04-29T12:02:46.280Z,98446.13
2023-04-29T12:05:15.095Z,98446.25
2023-04-29T12:07:41.983Z,98452.28
2023-04-29T12:10:12.435Z,98458.75
2023-04-29T12:12:44.283Z,98458.50
2023-04-29T12:15:11.883Z,98451.22
2023-04-29T12:17:39.621Z,98457.16
2023-04-29T12:20:09.489Z,98463.19
2023-04-29T12:22:36.653Z,98460.25
2023-04-29T12:25:04.187Z,98465.75
2023-04-29T12:27:32.343Z,98468.66
2023-04-29T12:29:58.940Z,98477.84
2023-04-29T12:32:25.925Z,98474.31
2023-04-29T12:34:53.370Z,98476.78
2023-04-29T12:37:22.413Z,98469.22
2023-04-29T12:39:50.663Z,98478.63
2023-04-29T12:42:17.866Z,98481.88
2023-04-29T12:44:51.189Z,98482.13
2023-04-29T12:47:17.833Z,98490.75
2023-04-29T12:49:46.166Z,98483.19
2023-04-29T12:52:13.493Z,98492.53
2023-04-29T12:54:44.316Z,98493.44
2023-04-29T12:57:12.020Z,98488.66
2023-04-29T12:59:39.803Z,98501.69
2023-04-29T13:02:06.639Z,98502.50
2023-04-29T13:04:33.401Z,98500.31
2023-04-29T13:07:00.915Z,98497.56
2023-04-29T13:09:27.630Z,98500.25
2023-04-29T13:11:54.504Z,98501.75
2023-04-29T13:14:22.026Z,98504.31
2023-04-29T13:16:48.747Z,98507.03
2023-04-29T13:19:30.433Z,98506.09
2023-04-29T13:22:02.293Z,98506.31
2023-04-29T13:24:33.273Z,98501.31
2023-04-29T13:27:00.187Z,98505.13
2023-04-29T13:29:27.147Z,98509.94
2023-04-29T13:31:54.320Z,98510.41
2023-04-29T13:34:21.586Z,98516.88
2023-04-29T13:36:48.469Z,98516.66
2023-04-29T13:39:15.776Z,98510.22
2023-04-29T13:41:45.853Z,98511.09
2023-04-29T13:44:24.016Z,98512.47
2023-04-29T13:46:57.616Z,98512.09
2023-04-29T13:49:54.717Z,98509.28
2023-04-29T13:59:50.365Z,98519.97
2023-04-29T14:04:48.978Z,98518.94
2023-04-29T14:07:16.263Z,98513.53
2023-04-29T14:09:43.329Z,98524.69
2023-04-29T14:12:09.921Z,98519.19
2023-04-29T14:14:36.732Z,98522.72
2023-04-29T14:17:03.934Z,98529.38
2023-04-29T14:19:30.682Z,98529.63
2023-04-29T14:21:57.218Z,98535.50
2023-04-29T14:24:23.822Z,98521.06
2023-04-29T14:26:50.659Z,98529.91
2023-04-29T14:29:17.204Z,98523.38
2023-04-29T14:31:44.217Z,98531.88
2023-04-29T14:34:11.020Z,98530.34
2023-04-29T14:36:37.635Z,98527.66
2023-04-29T14:39:04.412Z,98536.09
2023-04-29T14:41:31.015Z,98536.22
2023-04-29T14:43:57.680Z,98542.50
2023-04-29T14:46:25.294Z,98544.66
2023-04-29T14:48:52.074Z,98553.19
2023-04-29T14:51:18.620Z,98549.94
2023-04-29T14:53:45.270Z,98559.56
2023-04-29T14:56:11.981Z,98561.78
2023-04-29T14:58:38.725Z,98565.81
2023-04-29T15:01:05.591Z,98561.91
2023-04-29T15:03:32.236Z,98569.09
2023-04-29T15:05:59.153Z,98570.34
2023-04-29T15:08:25.873Z,98571.41
2023-04-29T15:10:52.452Z,98570.03
2023-04-29T15:13:19.461Z,98576.38
2023-04-29T15:15:46.100Z,98575.19
2023-04-29T15:18:12.970Z,98573.91
2023-04-29T15:20:39.687Z,98580.63
2023-04-29T15:23:06.821Z,98586.72
2023-04-29T15:25:36.643Z,98581.75
2023-04-29T15:28:04.908Z,98588.00
2023-04-29T15:30:32.109Z,98586.00
2023-04-29T15:32:58.793Z,98583.28
2023-04-29T15:35:25.460Z,98595.22
2023-04-29T15:37:51.998Z,98596.84
2023-04-29T15:40:18.635Z,98592.66
2023-04-29T15:42:45.294Z,98593.84
2023-04-29T15:45:12.418Z,98599.03
2023-04-29T15:47:39.119Z,98590.13
2023-04-29T15:50:07.153Z,98604.22
2023-04-29T15:52:33.780Z,98611.75
2023-04-29T15:55:00.423Z,98604.81
2023-04-29T15:57:27.366Z,98610.94
2023-04-29T15:59:54.288Z,98604.69
2023-04-29T16:02:21.533Z,98608.13
2023-04-29T16:04:48.304Z,98605.25
2023-04-29T16:07:15.060Z,98616.56
2023-04-29T16:09:41.712Z,98610.03
2023-04-29T16:12:08.734Z,98622.50
2023-04-29T16:14:35.342Z,98629.66
2023-04-29T16:17:02.117Z,98631.50
2023-04-29T16:19:28.793Z,98621.47
2023-04-29T16:21:55.605Z,98624.75
2023-04-29T16:24:22.279Z,98629.22
2023-04-29T16:26:49.840Z,98627.16
2023-04-29T16:29:16.498Z,98627.03
2023-04-29T16:31:43.728Z,98634.03
2023-04-29T16:34:11.781Z,98629.72
2023-04-29T16:36:38.392Z,98635.88
2023-04-29T16:39:05.084Z,98638.81
2023-04-29T16:41:32.107Z,98640.47
2023-04-29T16:43:58.903Z,98653.75
2023-04-29T16:46:26.229Z,98652.13
2023-04-29T16:48:56.899Z,98652.47
2023-04-29T16:51:27.515Z,98648.75
2023-04-29T16:53:54.258Z,98647.47
2023-04-29T16:56:22.659Z,98645.53
2023-04-29T16:58:49.365Z,98651.72
2023-04-29T17:01:16.497Z,98655.13
2023-04-29T17:03:43.266Z,98657.25
2023-04-29T17:06:09.951Z,98656.53
2023-04-29T17:08:36.775Z,98653.88
2023-04-29T17:11:05.250Z,98658.97
2023-04-29T17:13:31.979Z,98651.94
2023-04-29T17:15:59.134Z,98663.38
2023-04-29T17:18:25.962Z,98656.66
2023-04-29T17:20:52.915Z,98661.78
2023-04-29T17:23:19.603Z,98661.47
2023-04-29T17:25:46.591Z,98659.56
2023-04-29T17:28:13.302Z,98661.91
2023-04-29T17:30:39.881Z,98657.88
2023-04-29T17:33:06.556Z,98665.03
2023-04-29T17:35:33.597Z,98669.38
2023-04-29T17:38:00.972Z,98670.13
2023-04-29T17:40:27.645Z,98668.38
2023-04-29T17:42:54.212Z,98665.94
2023-04-29T17:45:21.145Z,98673.25
2023-04-29T17:47:48.490Z,98676.88
2023-04-29T17:50:15.253Z,98680.50
2023-04-29T17:52:42.225Z,98681.22
2023-04-29T17:55:09.338Z,98683.09
2023-04-29T17:57:38.141Z,98696.28
2023-04-29T18:00:07.585Z,98694.63
2023-04-29T18:02:34.978Z,98702.50
2023-04-29T18:05:03.279Z,98703.50
2023-04-29T18:07:29.941Z,98699.94
2023-04-29T18:09:56.825Z,98706.22
2023-04-29T18:12:24.266Z,98706.09
2023-04-29T18:14:52.005Z,98701.81
2023-04-29T18:17:19.067Z,98709.84
2023-04-29T18:19:52.413Z,98712.59
2023-04-29T18:22:19.261Z,98708.13
2023-04-29T18:24:46.751Z,98720.59
2023-04-29T18:27:13.489Z,98723.25
2023-04-29T18:29:40.064Z,98719.78
2023-04-29T18:32:07.960Z,98725.09
2023-04-29T18:34:35.039Z,98722.34
2023-04-29T18:37:01.749Z,98724.38
2023-04-29T18:39:28.478Z,98727.81
2023-04-29T18:41:55.402Z,98728.50
2023-04-29T18:44:22.014Z,98730.41
2023-04-29T18:46:48.578Z,98730.53
2023-04-29T18:49:17.127Z,98726.97
2023-04-29T18:51:46.765Z,98728.78
2023-04-29T18:54:18.596Z,98734.09
2023-04-29T18:56:49.915Z,98748.03
2023-04-29T18:59:19.626Z,98745.31
2023-04-29T19:01:47.672Z,98744.41
2023-04-29T19:04:14.624Z,98748.88
2023-04-29T19:06:41.970Z,98751.53
2023-04-29T19:09:08.792Z,98761.25
2023-04-29T19:11:36.316Z,98762.13
2023-04-29T19:14:04.310Z,98768.25
2023-04-29T19:16:31.013Z,98768.28
2023-04-29T19:18:57.608Z,98776.19
2023-04-29T19:21:24.252Z,98771.88
2023-04-29T19:23:50.883Z,98769.13
2023-04-29T19:26:17.557Z,98782.41
2023-04-29T19:28:44.102Z,98774.56
2023-04-29T19:31:11.814Z,98780.75
2023-04-29T19:33:38.481Z,98779.09
2023-04-29T19:36:05.124Z,98778.22
2023-04-29T19:38:31.675Z,98781.72
2023-04-29T19:40:58.306Z,98778.25
2023-04-29T19:43:24.950Z,98788.78
2023-04-29T19:45:51.550Z,98786.13
2023-04-29T19:48:18.190Z,98790.50
2023-04-29T19:50:44.868Z,98789.59
2023-04-29T19:53:11.572Z,98789.69
2023-04-29T19:55:39.948Z,98788.91
2023-04-29T19:58:07.689Z,98791.53
2023-04-29T20:00:34.538Z,98789.84
2023-04-29T20:03:01.285Z,98794.31
2023-04-29T20:05:28.936Z,98789.84
2023-04-29T20:07:55.971Z,98795.09
2023-04-29T20:10:22.747Z,98794.25
2023-04-29T20:12:49.306Z,98791.66
2023-04-29T20:15:16.057Z,98794.25
2023-04-29T20:17:42.627Z,98798.72
2023-04-29T20:20:09.485Z,98799.66
2023-04-29T20:22:36.293Z,98797.06
2023-04-29T20:25:04.232Z,98799.69
2023-04-29T20:27:30.853Z,98804.03
2023-04-29T20:29:57.493Z,98806.69
2023-04-29T20:32:24.281Z,98803.28
2023-04-29T20:34:51.301Z,98807.53
2023-04-29T20:37:19.904Z,98809.50
2023-04-29T20:39:47.534Z,98815.59
2023-04-29T20:42:14.329Z,98803.34
2023-04-29T20:44:41.107Z,98812.06
2023-04-29T20:47:07.614Z,98819.13
2023-04-29T20:49:34.350Z,98815.75
2023-04-29T20:52:01.562Z,98819.22
2023-04-29T20:54:28.339Z,98820.97
2023-04-29T20:56:54.968Z,98822.81
2023-04-29T20:59:21.493Z,98821.94
2023-04-29T21:01:48.259Z,98822.84
2023-04-29T21:04:15.083Z,98829.84
2023-04-29T21:06:41.755Z,98829.94
2023-04-29T21:09:09.131Z,98829.09
2023-04-29T21:11:35.752Z,98838.81
2023-04-29T21:14:02.361Z,98837.06
2023-04-29T21:16:28.968Z,98838.03
2023-04-29T21:18:55.537Z,98832.75
2023-04-29T21:21:23.310Z,98842.34
2023-04-29T21:23:49.817Z,98838.81
2023-04-29T21:26:16.417Z,98838.81
2023-04-29T21:28:43.141Z,98836.19
2023-04-29T21:31:15.535Z,98842.38
2023-04-29T21:33:46.297Z,98846.91
2023-04-29T21:36:13.361Z,98834.63
2023-04-29T21:38:39.949Z,98837.25
2023-04-29T21:41:07.016Z,98839.03
2023-04-29T21:43:33.918Z,98837.25
2023-04-29T21:46:00.805Z,98846.91
2023-04-29T21:48:27.571Z,98841.75
2023-04-29T21:50:54.197Z,98847.91
2023-04-29T21:53:20.988Z,98839.28
2023-04-29T21:55:47.790Z,98835.78
2023-04-29T21:58:14.493Z,98843.75
2023-04-29T22:00:47.965Z,98843.78
2023-04-29T22:03:15.336Z,98849.94
2023-04-29T22:05:42.013Z,98840.50
2023-04-29T22:08:08.533Z,98849.34
2023-04-29T22:10:35.137Z,98851.22
2023-04-29T22:13:01.817Z,98845.19
2023-04-29T22:15:29.529Z,98845.41
2023-04-29T22:17:57.077Z,98848.31
2023-04-29T22:20:24.009Z,98851.97
2023-04-29T22:22:50.668Z,98851.31
2023-04-29T22:25:18.150Z,98853.19
2023-04-29T22:27:44.725Z,98860.41
2023-04-29T22:30:11.816Z,98856.09
2023-04-29T22:32:38.435Z,98864.91
2023-04-29T22:35:05.578Z,98860.69
2023-04-29T22:37:32.125Z,98871.28
2023-04-29T22:39:59.166Z,98862.53
2023-04-29T22:42:25.770Z,98867.03
2023-04-29T22:44:52.312Z,98867.97
2023-04-29T22:47:18.796Z,98863.66
2023-04-29T22:49:45.395Z,98875.09
2023-04-29T22:52:12.085Z,98877.75
2023-04-29T22:54:38.621Z,98876.16
2023-04-29T22:57:05.225Z,98874.44
2023-04-29T22:59:31.939Z,98868.34
2023-04-29T23:01:58.660Z,98865.78
2023-04-29T23:04:25.501Z,98877.09
2023-04-29T23:06:52.259Z,98876.28
2023-04-29T23:09:19.062Z,98875.41
2023-04-29T23:11:45.743Z,98878.06
2023-04-29T23:14:12.277Z,98878.13
2023-04-29T23:16:38.773Z,98878.13
2023-04-29T23:19:05.403Z,98881.72
2023-04-29T23:21:32.611Z,98875.72
2023-04-29T23:23:59.241Z,98886.16
2023-04-29T23:26:25.813Z,98883.50
2023-04-29T23:28:52.386Z,98880.00
2023-04-29T23:31:19.025Z,98879.19
2023-04-29T23:33:45.651Z,98886.19
2023-04-29T23:36:12.269Z,98880.13
2023-04-29T23:38:38.869Z,98885.41
2023-04-29T23:41:05.393Z,98875.91
2023-04-29T23:43:32.246Z,98878.59
2023-04-29T23:45:58.949Z,98885.69
2023-04-29T23:48:25.517Z,98895.28
2023-04-29T23:50:52.052Z,98886.56
2023-04-29T23:53:18.740Z,98885.72
2023-04-29T23:55:45.496Z,98887.53
2023-04-29T23:58:12.167Z,98897.16
